EHPG

P11-b Sea

P11-b Sea, The Netherlands
METAR EHPG 231555Z AUTO 06025KT 9999 FEW024 03/M03 Q1021 W///H///
Observed Flight Rules
Feb-23 @ 15:55 UTC (41 minutes ago) Visual Flight Rules
Wind Visibility Clouds
60° at 25 knots 10,000+ meters
  • Few at 2,400' AGL
Temperatures Readings
Current 3°C / 37°F
Dewpoint -3°C / 27°F
Humidity 65%
Altimeter 30.15" Hg
Pressure 1021 hPa
Elevation 50
METAR EHPG 231555Z AUTO 06025KT 9999 FEW024 03/M03 Q1021 W///H///
Observed Flight Rules
Feb-23 @ 15:55 UTC
(41 minutes ago)
VFR
Wind Visibility
60° at 25 knots 10,000+ meters
Clouds
  • Few at 2,400' AGL
Temperature Dewpoint
3°C / 37°F -3°C / 27°F
Humidity Altimeter Pressure
65% 30.15" Hg 1021 hPa